sensor_id;sensor_type;location;lat;lon;timestamp;pressure;altitude;pressure_sealevel;temperature;humidity
77165;BME280;66140;50.280;18.660;2023-03-03T05:01:52;99355.59;;;-3.62;99.80
77165;BME280;66140;50.280;18.660;2023-03-03T05:04:17;99353.84;;;-3.55;99.95
77165;BME280;66140;50.280;18.660;2023-03-03T05:06:42;99372.84;;;-3.50;100.00
77165;BME280;66140;50.280;18.660;2023-03-03T05:09:08;99376.34;;;-3.60;100.00
77165;BME280;66140;50.280;18.660;2023-03-03T05:11:34;99365.09;;;-3.64;99.98
77165;BME280;66140;50.280;18.660;2023-03-03T05:14:00;99372.03;;;-3.68;100.00
77165;BME280;66140;50.280;18.660;2023-03-03T05:16:27;99366.00;;;-3.68;99.46
77165;BME280;66140;50.280;18.660;2023-03-03T05:18:52;99372.91;;;-3.75;99.26
77165;BME280;66140;50.280;18.660;2023-03-03T05:21:18;99384.16;;;-3.73;99.81
77165;BME280;66140;50.280;18.660;2023-03-03T05:23:43;99382.41;;;-3.68;99.73
77165;BME280;66140;50.280;18.660;2023-03-03T05:26:09;99381.53;;;-3.71;99.76
77165;BME280;66140;50.280;18.660;2023-03-03T05:28:34;99388.47;;;-3.75;99.38
77165;BME280;66140;50.280;18.660;2023-03-03T05:31:00;99394.53;;;-3.73;99.80
77165;BME280;66140;50.280;18.660;2023-03-03T05:33:25;99396.25;;;-3.72;99.81
77165;BME280;66140;50.280;18.660;2023-03-03T05:35:55;99397.97;;;-3.71;99.31
77165;BME280;66140;50.280;18.660;2023-03-03T05:38:21;99401.44;;;-3.72;99.36
77165;BME280;66140;50.280;18.660;2023-03-03T05:40:47;99411.81;;;-3.72;99.21
77165;BME280;66140;50.280;18.660;2023-03-03T05:43:12;99402.31;;;-3.73;99.44
77165;BME280;66140;50.280;18.660;2023-03-03T05:45:37;99400.56;;;-3.68;99.32
77165;BME280;66140;50.280;18.660;2023-03-03T05:48:03;99419.53;;;-3.58;99.06
77165;BME280;66140;50.280;18.660;2023-03-03T05:50:29;99416.97;;;-3.63;98.43
77165;BME280;66140;50.280;18.660;2023-03-03T05:52:55;99411.78;;;-3.59;98.80
77165;BME280;66140;50.280;18.660;2023-03-03T05:55:20;99411.78;;;-3.59;98.79
77165;BME280;66140;50.280;18.660;2023-03-03T05:57:46;99422.13;;;-3.50;98.66
77165;BME280;66140;50.280;18.660;2023-03-03T06:00:12;99445.47;;;-3.47;98.48
77165;BME280;66140;50.280;18.660;2023-03-03T06:02:39;99436.81;;;-3.46;98.58
77165;BME280;66140;50.280;18.660;2023-03-03T06:05:05;99438.53;;;-3.51;98.48
77165;BME280;66140;50.280;18.660;2023-03-03T06:07:31;99442.88;;;-3.58;98.38
77165;BME280;66140;50.280;18.660;2023-03-03T06:09:56;99448.06;;;-3.56;98.89
77165;BME280;66140;50.280;18.660;2023-03-03T06:12:22;99434.22;;;-3.57;99.04
77165;BME280;66140;50.280;18.660;2023-03-03T06:14:47;99434.22;;;-3.51;99.21
77165;BME280;66140;50.280;18.660;2023-03-03T06:17:13;99425.56;;;-3.45;99.23
77165;BME280;66140;50.280;18.660;2023-03-03T06:19:38;99408.25;;;-3.39;98.88
77165;BME280;66140;50.280;18.660;2023-03-03T06:22:05;99418.63;;;-3.34;99.67
77165;BME280;66140;50.280;18.660;2023-03-03T06:24:31;99438.47;;;-3.24;98.88
77165;BME280;66140;50.280;18.660;2023-03-03T06:26:57;99437.59;;;-3.23;99.01
77165;BME280;66140;50.280;18.660;2023-03-03T06:29:23;99434.13;;;-3.19;98.89
77165;BME280;66140;50.280;18.660;2023-03-03T06:31:48;99448.81;;;-3.16;99.27
77165;BME280;66140;50.280;18.660;2023-03-03T06:34:13;99460.13;;;-3.28;98.96
77165;BME280;66140;50.280;18.660;2023-03-03T06:36:39;99460.94;;;-3.26;99.22
77165;BME280;66140;50.280;18.660;2023-03-03T06:39:04;99458.38;;;-3.28;99.37
77165;BME280;66140;50.280;18.660;2023-03-03T06:41:30;99442.78;;;-3.23;99.68
77165;BME280;66140;50.280;18.660;2023-03-03T06:43:55;99447.97;;;-3.20;98.99
77165;BME280;66140;50.280;18.660;2023-03-03T06:46:22;99455.75;;;-3.18;99.19
77165;BME280;66140;50.280;18.660;2023-03-03T06:48:48;99449.75;;;-3.28;99.29
77165;BME280;66140;50.280;18.660;2023-03-03T06:51:30;99460.94;;;-3.20;99.54
77165;BME280;66140;50.280;18.660;2023-03-03T06:53:59;99438.44;;;-3.15;99.33
77165;BME280;66140;50.280;18.660;2023-03-03T06:56:26;99439.31;;;-3.19;99.36
77165;BME280;66140;50.280;18.660;2023-03-03T06:58:59;99457.50;;;-3.25;98.92
77165;BME280;66140;50.280;18.660;2023-03-03T07:01:27;99463.56;;;-3.32;99.00
77165;BME280;66140;50.280;18.660;2023-03-03T07:03:56;99464.44;;;-3.38;99.21
77165;BME280;66140;50.280;18.660;2023-03-03T07:06:25;99441.94;;;-3.31;99.14
77165;BME280;66140;50.280;18.660;2023-03-03T07:08:53;99441.94;;;-3.25;99.70
77165;BME280;66140;50.280;18.660;2023-03-03T07:11:21;99431.53;;;-3.19;99.72
77165;BME280;66140;50.280;18.660;2023-03-03T07:13:49;99437.53;;;-3.05;99.96
77165;BME280;66140;50.280;18.660;2023-03-03T07:16:16;99426.28;;;-3.04;100.00
77165;BME280;66140;50.280;18.660;2023-03-03T07:18:53;99450.47;;;-2.88;99.95
77165;BME280;66140;50.280;18.660;2023-03-03T07:21:22;99443.50;;;-2.85;99.89
77165;BME280;66140;50.280;18.660;2023-03-03T07:23:50;99468.56;;;-2.80;99.82
77165;BME280;66140;50.280;18.660;2023-03-03T07:26:19;99477.25;;;-2.85;99.43
77165;BME280;66140;50.280;18.660;2023-03-03T07:31:38;99485.88;;;-2.79;99.88
77165;BME280;66140;50.280;18.660;2023-03-03T07:34:16;99472.03;;;-2.78;99.43
77165;BME280;66140;50.280;18.660;2023-03-03T07:36:44;99453.81;;;-2.72;100.00
77165;BME280;66140;50.280;18.660;2023-03-03T07:39:41;99452.09;;;-2.73;99.76
77165;BME280;66140;50.280;18.660;2023-03-03T07:44:35;99456.31;;;-2.54;100.00
77165;BME280;66140;50.280;18.660;2023-03-03T07:47:26;99464.06;;;-2.48;99.94
77165;BME280;66140;50.280;18.660;2023-03-03T07:49:55;99476.16;;;-2.41;100.00
77165;BME280;66140;50.280;18.660;2023-03-03T07:55:20;99491.75;;;-2.41;99.50
77165;BME280;66140;50.280;18.660;2023-03-03T07:57:49;99485.69;;;-2.37;99.53
77165;BME280;66140;50.280;18.660;2023-03-03T08:02:44;99466.56;;;-2.30;98.86
77165;BME280;66140;50.280;18.660;2023-03-03T08:05:50;99477.78;;;-2.20;99.28
77165;BME280;66140;50.280;18.660;2023-03-03T08:08:32;99476.00;;;-2.12;98.89
77165;BME280;66140;50.280;18.660;2023-03-03T08:11:01;99469.00;;;-2.07;99.34
77165;BME280;66140;50.280;18.660;2023-03-03T08:16:20;99477.63;;;-1.99;99.26
77165;BME280;66140;50.280;18.660;2023-03-03T08:18:49;99460.31;;;-2.02;99.45
77165;BME280;66140;50.280;18.660;2023-03-03T08:21:24;99466.25;;;-1.89;99.64
77165;BME280;66140;50.280;18.660;2023-03-03T08:23:51;99467.06;;;-1.81;99.83
77165;BME280;66140;50.280;18.660;2023-03-03T08:26:18;99461.03;;;-1.84;99.36
77165;BME280;66140;50.280;18.660;2023-03-03T08:28:45;99478.34;;;-1.80;99.84
77165;BME280;66140;50.280;18.660;2023-03-03T08:31:10;99478.34;;;-1.80;99.76
77165;BME280;66140;50.280;18.660;2023-03-03T08:33:37;99476.59;;;-1.81;99.26
77165;BME280;66140;50.280;18.660;2023-03-03T08:36:03;99476.63;;;-1.84;99.75
77165;BME280;66140;50.280;18.660;2023-03-03T08:38:28;99481.00;;;-1.86;99.87
77165;BME280;66140;50.280;18.660;2023-03-03T08:40:54;99503.47;;;-1.79;99.80
77165;BME280;66140;50.280;18.660;2023-03-03T08:43:19;99496.53;;;-1.80;100.00
77165;BME280;66140;50.280;18.660;2023-03-03T08:45:48;99473.97;;;-1.77;100.00
77165;BME280;66140;50.280;18.660;2023-03-03T08:48:15;99487.72;;;-1.63;100.00
77165;BME280;66140;50.280;18.660;2023-03-03T08:50:41;99482.53;;;-1.66;100.00
77165;BME280;66140;50.280;18.660;2023-03-03T08:53:08;99475.59;;;-1.65;100.00
77165;BME280;66140;50.280;18.660;2023-03-03T08:55:34;99478.13;;;-1.57;100.00
77165;BME280;66140;50.280;18.660;2023-03-03T08:57:59;99460.78;;;-1.60;100.00
77165;BME280;66140;50.280;18.660;2023-03-03T09:00:25;99453.78;;;-1.52;100.00
77165;BME280;66140;50.280;18.660;2023-03-03T09:02:51;99469.34;;;-1.46;100.00
77165;BME280;66140;50.280;18.660;2023-03-03T09:05:18;99471.84;;;-1.37;100.00
77165;BME280;66140;50.280;18.660;2023-03-03T09:07:45;99469.28;;;-1.40;100.00
77165;BME280;66140;50.280;18.660;2023-03-03T09:10:13;99472.72;;;-1.35;100.00
77165;BME280;66140;50.280;18.660;2023-03-03T09:12:42;99464.91;;;-1.36;99.67
77165;BME280;66140;50.280;18.660;2023-03-03T09:17:45;99472.72;;;-1.38;99.90
77165;BME280;66140;50.280;18.660;2023-03-03T09:22:48;99477.81;;;-1.26;99.38
77165;BME280;66140;50.280;18.660;2023-03-03T09:27:47;99463.84;;;-1.15;99.42
77165;BME280;66140;50.280;18.660;2023-03-03T09:30:30;99456.78;;;-1.07;99.05
77165;BME280;66140;50.280;18.660;2023-03-03T09:32:58;99449.84;;;-1.08;98.47
77165;BME280;66140;50.280;18.660;2023-03-03T09:37:52;99454.06;;;-0.97;98.63
77165;BME280;66140;50.280;18.660;2023-03-03T09:43:27;99460.19;;;-1.02;97.88
77165;BME280;66140;50.280;18.660;2023-03-03T09:54:50;99489.69;;;-1.00;97.31
77165;BME280;66140;50.280;18.660;2023-03-03T10:01:12;99480.84;;;-0.89;96.36
77165;BME280;66140;50.280;18.660;2023-03-03T10:06:24;99465.28;;;-0.92;96.15
77165;BME280;66140;50.280;18.660;2023-03-03T10:17:08;99490.31;;;-0.82;97.28
77165;BME280;66140;50.280;18.660;2023-03-03T10:22:51;99501.59;;;-0.78;96.78
77165;BME280;66140;50.280;18.660;2023-03-03T10:28:16;99499.88;;;-0.81;96.97
77165;BME280;66140;50.280;18.660;2023-03-03T10:33:32;99486.84;;;-0.81;96.71
77165;BME280;66140;50.280;18.660;2023-03-03T10:36:19;99487.69;;;-0.77;96.91
77165;BME280;66140;50.280;18.660;2023-03-03T10:47:08;99501.47;;;-0.69;95.85
77165;BME280;66140;50.280;18.660;2023-03-03T10:49:58;99501.47;;;-0.69;95.54
77165;BME280;66140;50.280;18.660;2023-03-03T10:52:48;99503.19;;;-0.68;95.31
77165;BME280;66140;50.280;18.660;2023-03-03T10:58:03;99493.66;;;-0.69;94.99
77165;BME280;66140;50.280;18.660;2023-03-03T11:03:45;99499.66;;;-0.64;95.74
77165;BME280;66140;50.280;18.660;2023-03-03T11:09:03;99490.06;;;-0.60;95.62
77165;BME280;66140;50.280;18.660;2023-03-03T11:11:52;99491.81;;;-0.61;95.66
77165;BME280;66140;50.280;18.660;2023-03-03T11:14:32;99485.78;;;-0.64;96.18
77165;BME280;66140;50.280;18.660;2023-03-03T11:17:19;99488.44;;;-0.69;95.21
77165;BME280;66140;50.280;18.660;2023-03-03T11:19:56;99485.91;;;-0.75;95.28
77165;BME280;66140;50.280;18.660;2023-03-03T11:22:58;99487.63;;;-0.71;95.89
77165;BME280;66140;50.280;18.660;2023-03-03T11:30:47;99490.09;;;-0.62;96.77
77165;BME280;66140;50.280;18.660;2023-03-03T11:33:20;99488.34;;;-0.60;95.77
77165;BME280;66140;50.280;18.660;2023-03-03T11:38:43;99478.75;;;-0.58;95.03
77165;BME280;66140;50.280;18.660;2023-03-03T11:41:28;99474.38;;;-0.56;93.53
77165;BME280;66140;50.280;18.660;2023-03-03T11:46:55;99477.66;;;-0.40;94.12
77165;BME280;66140;50.280;18.660;2023-03-03T11:52:04;99473.06;;;-0.24;91.52
77165;BME280;66140;50.280;18.660;2023-03-03T11:54:46;99480.75;;;-0.14;90.40
77165;BME280;66140;50.280;18.660;2023-03-03T11:59:52;99485.03;;;-0.11;90.73
77165;BME280;66140;50.280;18.660;2023-03-03T12:05:41;99472.75;;;-0.03;91.95
77165;BME280;66140;50.280;18.660;2023-03-03T12:08:35;99470.94;;;0.02;92.10
77165;BME280;66140;50.280;18.660;2023-03-03T12:11:31;99473.63;;;-0.03;92.56
77165;BME280;66140;50.280;18.660;2023-03-03T12:19:33;99465.06;;;-0.12;92.22
77165;BME280;66140;50.280;18.660;2023-03-03T12:22:25;99465.91;;;-0.10;92.58
77165;BME280;66140;50.280;18.660;2023-03-03T12:34:23;99462.00;;;0.18;92.60
77165;BME280;66140;50.280;18.660;2023-03-03T12:39:49;99444.75;;;0.08;90.84
77165;BME280;66140;50.280;18.660;2023-03-03T12:42:24;99443.97;;;0.03;91.02
77165;BME280;66140;50.280;18.660;2023-03-03T12:47:44;99442.03;;;0.14;90.52
77165;BME280;66140;50.280;18.660;2023-03-03T12:53:59;99442.56;;;0.34;88.35
77165;BME280;66140;50.280;18.660;2023-03-03T12:56:30;99437.34;;;0.34;86.47
77165;BME280;66140;50.280;18.660;2023-03-03T12:59:08;99428.75;;;0.29;87.69
77165;BME280;66140;50.280;18.660;2023-03-03T13:12:27;99437.34;;;0.34;89.74
77165;BME280;66140;50.280;18.660;2023-03-03T13:17:30;99430.50;;;0.27;89.06
77165;BME280;66140;50.280;18.660;2023-03-03T13:20:00;99441.88;;;0.23;89.01
77165;BME280;66140;50.280;18.660;2023-03-03T13:22:37;99430.56;;;0.24;88.87
77165;BME280;66140;50.280;18.660;2023-03-03T13:25:18;99439.28;;;0.23;88.28
77165;BME280;66140;50.280;18.660;2023-03-03T13:27:52;99440.16;;;0.22;88.88
77165;BME280;66140;50.280;18.660;2023-03-03T13:30:25;99440.13;;;0.25;88.32
77165;BME280;66140;50.280;18.660;2023-03-03T13:33:19;99439.41;;;0.16;86.59
77165;BME280;66140;50.280;18.660;2023-03-03T13:38:22;99437.88;;;0.04;88.22
77165;BME280;66140;50.280;18.660;2023-03-03T13:40:56;99430.81;;;0.09;87.74
77165;BME280;66140;50.280;18.660;2023-03-03T13:43:39;99433.44;;;0.09;89.02
77165;BME280;66140;50.280;18.660;2023-03-03T13:46:15;99435.16;;;0.09;88.23
77165;BME280;66140;50.280;18.660;2023-03-03T14:06:02;99420.91;;;0.29;86.83
77165;BME280;66140;50.280;18.660;2023-03-03T14:11:28;99427.25;;;0.13;87.58
77165;BME280;66140;50.280;18.660;2023-03-03T14:16:51;99435.25;;;0.06;87.17
77165;BME280;66140;50.280;18.660;2023-03-03T14:19:43;99426.56;;;0.04;86.97
77165;BME280;66140;50.280;18.660;2023-03-03T14:22:32;99428.41;;;-0.02;86.99
77165;BME280;66140;50.280;18.660;2023-03-03T14:25:08;99424.91;;;-0.02;85.16
77165;BME280;66140;50.280;18.660;2023-03-03T14:30:37;99429.34;;;-0.07;86.98
77165;BME280;66140;50.280;18.660;2023-03-03T14:38:18;99416.22;;;-0.01;86.62
77165;BME280;66140;50.280;18.660;2023-03-03T14:40:45;99413.72;;;-0.09;86.78
77165;BME280;66140;50.280;18.660;2023-03-03T14:43:32;99417.28;;;-0.14;85.90
77165;BME280;66140;50.280;18.660;2023-03-03T14:46:37;99411.25;;;-0.18;86.49
77165;BME280;66140;50.280;18.660;2023-03-03T14:49:04;99406.88;;;-0.14;87.58
77165;BME280;66140;50.280;18.660;2023-03-03T14:51:40;99416.38;;;-0.12;86.53
77165;BME280;66140;50.280;18.660;2023-03-03T14:54:24;99412.09;;;-0.16;86.24
77165;BME280;66140;50.280;18.660;2023-03-03T14:56:55;99404.16;;;-0.08;87.18
77165;BME280;66140;50.280;18.660;2023-03-03T14:59:24;99425.91;;;-0.09;87.33
77165;BME280;66140;50.280;18.660;2023-03-03T15:04:42;99420.81;;;-0.18;88.64
77165;BME280;66140;50.280;18.660;2023-03-03T15:07:29;99414.72;;;-0.16;89.21
77165;BME280;66140;50.280;18.660;2023-03-03T15:09:56;99416.44;;;-0.16;88.92
77165;BME280;66140;50.280;18.660;2023-03-03T15:15:12;99408.72;;;-0.22;88.86
77165;BME280;66140;50.280;18.660;2023-03-03T15:17:56;99406.91;;;-0.19;88.08
77165;BME280;66140;50.280;18.660;2023-03-03T15:20:55;99393.75;;;-0.11;89.29
77165;BME280;66140;50.280;18.660;2023-03-03T15:26:17;99402.66;;;-0.23;88.83
77165;BME280;66140;50.280;18.660;2023-03-03T15:29:10;99401.75;;;-0.20;89.24
77165;BME280;66140;50.280;18.660;2023-03-03T15:39:57;99407.06;;;-0.26;89.97
77165;BME280;66140;50.280;18.660;2023-03-03T15:45:36;99409.72;;;-0.31;90.49
77165;BME280;66140;50.280;18.660;2023-03-03T15:48:36;99400.22;;;-0.33;90.72
77165;BME280;66140;50.280;18.660;2023-03-03T15:56:52;99401.09;;;-0.34;91.26
77165;BME280;66140;50.280;18.660;2023-03-03T15:59:51;99400.22;;;-0.35;90.86
77165;BME280;66140;50.280;18.660;2023-03-03T16:07:48;99403.81;;;-0.44;91.71
77165;BME280;66140;50.280;18.660;2023-03-03T16:18:32;99415.97;;;-0.41;91.93
77165;BME280;66140;50.280;18.660;2023-03-03T16:21:22;99412.50;;;-0.42;91.94
77165;BME280;66140;50.280;18.660;2023-03-03T16:23:59;99412.59;;;-0.48;91.94
77165;BME280;66140;50.280;18.660;2023-03-03T16:31:56;99408.31;;;-0.52;92.38
77165;BME280;66140;50.280;18.660;2023-03-03T16:37:31;99410.84;;;-0.49;92.41
77165;BME280;66140;50.280;18.660;2023-03-03T16:40:15;99411.75;;;-0.50;92.09
77165;BME280;66140;50.280;18.660;2023-03-03T16:42:46;99415.22;;;-0.51;92.14
77165;BME280;66140;50.280;18.660;2023-03-03T16:45:30;99417.00;;;-0.53;92.24
77165;BME280;66140;50.280;18.660;2023-03-03T16:50:43;99414.50;;;-0.59;92.37
77165;BME280;66140;50.280;18.660;2023-03-03T16:56:07;99417.88;;;-0.54;92.05
77165;BME280;66140;50.280;18.660;2023-03-03T16:58:52;99412.69;;;-0.54;92.31
77165;BME280;66140;50.280;18.660;2023-03-03T17:06:44;99429.09;;;-0.47;92.74
77165;BME280;66140;50.280;18.660;2023-03-03T17:09:25;99423.03;;;-0.49;91.96
77165;BME280;66140;50.280;18.660;2023-03-03T17:12:07;99423.03;;;-0.49;92.93
77165;BME280;66140;50.280;18.660;2023-03-03T17:14:41;99428.25;;;-0.51;92.32
77165;BME280;66140;50.280;18.660;2023-03-03T17:19:58;99430.84;;;-0.51;92.74
77165;BME280;66140;50.280;18.660;2023-03-03T17:22:30;99437.78;;;-0.47;92.20
77165;BME280;66140;50.280;18.660;2023-03-03T17:33:25;99442.28;;;-0.59;92.63
77165;BME280;66140;50.280;18.660;2023-03-03T17:36:25;99444.03;;;-0.60;92.44
77165;BME280;66140;50.280;18.660;2023-03-03T17:39:15;99434.50;;;-0.64;92.24
77165;BME280;66140;50.280;18.660;2023-03-03T17:45:05;99439.78;;;-0.67;92.39
77165;BME280;66140;50.280;18.660;2023-03-03T17:47:57;99443.28;;;-0.69;91.91
77165;BME280;66140;50.280;18.660;2023-03-03T18:06:35;99432.84;;;-0.68;92.90
77165;BME280;66140;50.280;18.660;2023-03-03T18:15:40;99436.38;;;-0.72;93.40
77165;BME280;66140;50.280;18.660;2023-03-03T18:17:49;99437.25;;;-0.73;93.39
77165;BME280;66140;50.280;18.660;2023-03-03T18:23:27;99446.75;;;-0.70;93.34
77165;BME280;66140;50.280;18.660;2023-03-03T18:25:59;99444.16;;;-0.69;93.31
77165;BME280;66140;50.280;18.660;2023-03-03T18:28:49;99448.44;;;-0.65;92.78
77165;BME280;66140;50.280;18.660;2023-03-03T18:31:23;99449.28;;;-0.63;93.30
77165;BME280;66140;50.280;18.660;2023-03-03T18:38:52;99435.50;;;-0.71;92.66
77165;BME280;66140;50.280;18.660;2023-03-03T18:44:28;99438.91;;;-0.66;93.06
77165;BME280;66140;50.280;18.660;2023-03-03T18:46:54;99428.44;;;-0.63;92.87
77165;BME280;66140;50.280;18.660;2023-03-03T18:49:49;99427.56;;;-0.62;92.58
77165;BME280;66140;50.280;18.660;2023-03-03T18:57:36;99420.69;;;-0.67;93.25
77165;BME280;66140;50.280;18.660;2023-03-03T19:02:50;99421.53;;;-0.67;93.77
77165;BME280;66140;50.280;18.660;2023-03-03T19:05:45;99420.66;;;-0.66;93.92
77165;BME280;66140;50.280;18.660;2023-03-03T19:08:51;99419.75;;;-0.63;93.71
77165;BME280;66140;50.280;18.660;2023-03-03T19:16:43;99417.19;;;-0.65;93.42
77165;BME280;66140;50.280;18.660;2023-03-03T19:19:16;99424.94;;;-0.62;93.52
77165;BME280;66140;50.280;18.660;2023-03-03T19:21:46;99416.25;;;-0.61;93.38
77165;BME280;66140;50.280;18.660;2023-03-03T19:24:32;99431.88;;;-0.59;93.59
77165;BME280;66140;50.280;18.660;2023-03-03T19:30:06;99424.09;;;-0.64;93.71
77165;BME280;66140;50.280;18.660;2023-03-03T19:38:35;99417.13;;;-0.60;93.24
77165;BME280;66140;50.280;18.660;2023-03-03T19:46:29;99426.66;;;-0.61;93.79
77165;BME280;66140;50.280;18.660;2023-03-03T19:49:16;99426.66;;;-0.61;93.46
77165;BME280;66140;50.280;18.660;2023-03-03T19:51:55;99421.53;;;-0.67;93.43
77165;BME280;66140;50.280;18.660;2023-03-03T19:54:58;99431.06;;;-0.64;93.44
77165;BME280;66140;50.280;18.660;2023-03-03T20:05:45;99412.00;;;-0.66;93.14
77165;BME280;66140;50.280;18.660;2023-03-03T20:08:14;99416.31;;;-0.65;92.99
77165;BME280;66140;50.280;18.660;2023-03-03T20:10:52;99408.53;;;-0.68;93.07
77165;BME280;66140;50.280;18.660;2023-03-03T20:16:11;99413.72;;;-0.65;93.11
77165;BME280;66140;50.280;18.660;2023-03-03T20:18:50;99412.84;;;-0.66;93.07
77165;BME280;66140;50.280;18.660;2023-03-03T20:21:37;99417.13;;;-0.63;92.88
77165;BME280;66140;50.280;18.660;2023-03-03T20:46:45;99418.94;;;-0.65;93.25
77165;BME280;66140;50.280;18.660;2023-03-03T20:52:22;99411.03;;;-0.61;93.09
77165;BME280;66140;50.280;18.660;2023-03-03T20:55:07;99404.09;;;-0.62;92.79
77165;BME280;66140;50.280;18.660;2023-03-03T21:00:51;99398.09;;;-0.65;92.75
77165;BME280;66140;50.280;18.660;2023-03-03T21:06:00;99391.06;;;-0.62;92.54
77165;BME280;66140;50.280;18.660;2023-03-03T21:08:50;99384.13;;;-0.61;92.21
77165;BME280;66140;50.280;18.660;2023-03-03T21:13:53;99397.06;;;-0.57;91.66
77165;BME280;66140;50.280;18.660;2023-03-03T21:19:03;99388.47;;;-0.62;91.89
77165;BME280;66140;50.280;18.660;2023-03-03T21:21:40;99376.28;;;-0.60;91.77
77165;BME280;66140;50.280;18.660;2023-03-03T21:24:09;99378.00;;;-0.59;91.55
77165;BME280;66140;50.280;18.660;2023-03-03T21:26:53;99378.03;;;-0.62;91.96
77165;BME280;66140;50.280;18.660;2023-03-03T21:29:30;99377.19;;;-0.62;92.57
77165;BME280;66140;50.280;18.660;2023-03-03T21:32:00;99378.00;;;-0.59;92.44
77165;BME280;66140;50.280;18.660;2023-03-03T21:34:29;99361.50;;;-0.59;91.81
77165;BME280;66140;50.280;18.660;2023-03-03T21:36:56;99377.94;;;-0.56;91.74
77165;BME280;66140;50.280;18.660;2023-03-03T21:39:39;99377.16;;;-0.59;91.63
77165;BME280;66140;50.280;18.660;2023-03-03T21:42:24;99366.81;;;-0.65;92.30
77165;BME280;66140;50.280;18.660;2023-03-03T21:45:15;99378.91;;;-0.60;92.28
77165;BME280;66140;50.280;18.660;2023-03-03T21:47:44;99361.53;;;-0.61;92.54
77165;BME280;66140;50.280;18.660;2023-03-03T21:50:48;99364.09;;;-0.58;92.03
77165;BME280;66140;50.280;18.660;2023-03-03T21:53:14;99366.72;;;-0.59;92.12
77165;BME280;66140;50.280;18.660;2023-03-03T21:55:40;99351.09;;;-0.59;92.85
77165;BME280;66140;50.280;18.660;2023-03-03T21:58:15;99350.16;;;-0.57;92.53
77165;BME280;66140;50.280;18.660;2023-03-03T22:00:41;99346.75;;;-0.59;92.67
77165;BME280;66140;50.280;18.660;2023-03-03T22:03:08;99355.38;;;-0.57;92.54
77165;BME280;66140;50.280;18.660;2023-03-03T22:05:34;99346.75;;;-0.59;92.11
77165;BME280;66140;50.280;18.660;2023-03-03T22:08:00;99331.97;;;-0.58;92.50
77165;BME280;66140;50.280;18.660;2023-03-03T22:10:25;99332.84;;;-0.58;92.59
77165;BME280;66140;50.280;18.660;2023-03-03T22:12:51;99322.44;;;-0.61;92.79
77165;BME280;66140;50.280;18.660;2023-03-03T22:15:16;99316.44;;;-0.66;92.76
77165;BME280;66140;50.280;18.660;2023-03-03T22:17:42;99311.06;;;-0.57;91.98
77165;BME280;66140;50.280;18.660;2023-03-03T22:20:09;99322.34;;;-0.55;92.23
77165;BME280;66140;50.280;18.660;2023-03-03T22:22:35;99315.31;;;-0.51;91.44
77165;BME280;66140;50.280;18.660;2023-03-03T22:25:00;99302.44;;;-0.59;92.13
77165;BME280;66140;50.280;18.660;2023-03-03T22:27:26;99306.78;;;-0.59;91.94
77165;BME280;66140;50.280;18.660;2023-03-03T22:29:51;99292.91;;;-0.60;92.59
